Terminal Aerodrome Forecast
Issued by NWS Detroit/Pontiac, MI

Home | Current Version | Previous Version | Text Only | Print | Product List | Glossary On
Versions: 1 2 3 4 5 6 7 8 9 10 11 12 13 14 15 16 17 18 19 20 21 22
447
FTUS43 KDTX 152322
TAFFNT
TAF
KFNT 152322Z 1600/1624 26011KT P6SM -SHSN SCT025 OVC040
      TEMPO 1600/1601 3SM -SHSN OVC025
     FM160500 24006KT 4SM -SN BR OVC025
      TEMPO 1608/1612 1 1/2SM -SN BR OVC018
     FM161500 03005KT P6SM OVC020
     FM161900 08005KT P6SM OVC025=

USA.gov is the U.S. government's official web portal to all federal, state and local government web resources and services.